createdAt,value
2018-11-10T00:02:15.975Z,100.00
2018-11-10T00:04:44.417Z,100.00
2018-11-10T00:07:12.949Z,100.00
2018-11-10T00:09:41.287Z,99.78
2018-11-10T00:12:09.738Z,99.83
2018-11-10T00:14:38.201Z,99.77
2018-11-10T00:17:07.135Z,99.65
2018-11-10T00:19:35.480Z,99.76
2018-11-10T00:22:04.067Z,99.47
2018-11-10T00:24:32.636Z,99.43
2018-11-10T00:27:01.267Z,99.55
2018-11-10T00:29:29.548Z,99.12
2018-11-10T00:31:57.932Z,99.23
2018-11-10T00:34:26.363Z,99.52
2018-11-10T00:36:54.818Z,99.62
2018-11-10T00:39:23.138Z,99.57
2018-11-10T00:41:51.451Z,100.00
2018-11-10T00:44:19.759Z,99.86
2018-11-10T00:46:48.149Z,100.00
2018-11-10T00:49:16.716Z,99.65
2018-11-10T00:51:45.583Z,99.75
2018-11-10T00:54:14.013Z,99.83
2018-11-10T00:56:42.385Z,100.00
2018-11-10T00:59:10.687Z,100.00
2018-11-10T01:01:39.026Z,100.00
2018-11-10T01:04:07.446Z,100.00
2018-11-10T01:06:37.403Z,100.00
2018-11-10T01:09:07.697Z,100.00
2018-11-10T01:11:36.035Z,100.00
2018-11-10T01:14:04.406Z,100.00
2018-11-10T01:16:32.763Z,100.00
2018-11-10T01:19:01.043Z,100.00
2018-11-10T01:21:29.368Z,100.00
2018-11-10T01:23:57.658Z,100.00
2018-11-10T01:26:25.986Z,100.00
2018-11-10T01:28:54.341Z,100.00
2018-11-10T01:31:22.780Z,100.00
2018-11-10T01:33:51.180Z,100.00
2018-11-10T01:36:19.475Z,100.00
2018-11-10T01:38:47.838Z,100.00
2018-11-10T01:41:16.297Z,100.00
2018-11-10T01:43:44.696Z,100.00
2018-11-10T01:46:12.983Z,100.00
2018-11-10T01:48:41.321Z,100.00
2018-11-10T01:51:09.610Z,100.00
2018-11-10T01:53:37.918Z,100.00
2018-11-10T01:56:06.391Z,100.00
2018-11-10T01:58:34.752Z,100.00
2018-11-10T02:01:03.072Z,100.00
2018-11-10T02:03:31.394Z,100.00
2018-11-10T02:05:59.734Z,100.00
2018-11-10T02:08:28.104Z,100.00
2018-11-10T02:10:56.392Z,100.00
2018-11-10T02:13:24.709Z,100.00
2018-11-10T02:15:53.013Z,100.00
2018-11-10T02:18:21.347Z,100.00
2018-11-10T02:20:49.674Z,100.00
2018-11-10T02:23:18.589Z,100.00
2018-11-10T02:25:47.001Z,100.00
2018-11-10T02:28:15.679Z,100.00
2018-11-10T02:30:44.354Z,100.00
2018-11-10T02:33:12.698Z,100.00
2018-11-10T02:35:41.006Z,100.00
2018-11-10T02:38:09.331Z,100.00
2018-11-10T02:40:37.627Z,100.00
2018-11-10T02:43:06.193Z,100.00
2018-11-10T02:45:34.779Z,100.00
2018-11-10T02:48:03.099Z,100.00
2018-11-10T02:50:31.433Z,100.00
2018-11-10T02:52:59.735Z,100.00
2018-11-10T02:55:28.183Z,100.00
2018-11-10T02:57:56.770Z,100.00
2018-11-10T03:00:25.096Z,100.00
2018-11-10T03:02:53.418Z,100.00
2018-11-10T03:05:21.699Z,100.00
2018-11-10T03:07:50.022Z,100.00
2018-11-10T03:10:18.308Z,100.00
2018-11-10T03:12:46.682Z,100.00
2018-11-10T03:15:14.982Z,100.00
2018-11-10T03:17:43.315Z,100.00
2018-11-10T03:20:13.648Z,100.00
2018-11-10T03:22:42.020Z,100.00
2018-11-10T03:25:10.692Z,100.00
2018-11-10T03:27:39.157Z,100.00
2018-11-10T03:30:07.793Z,100.00
2018-11-10T03:32:36.535Z,99.57
2018-11-10T03:35:05.411Z,99.49
2018-11-10T03:37:33.708Z,99.17
2018-11-10T03:40:02.325Z,99.47
2018-11-10T03:42:30.731Z,99.49
2018-11-10T03:44:59.073Z,100.00
2018-11-10T03:47:27.463Z,99.66
2018-11-10T03:49:55.839Z,99.80
2018-11-10T03:52:24.189Z,99.78
2018-11-10T03:54:52.498Z,99.33
2018-11-10T03:57:20.908Z,99.50
2018-11-10T03:59:49.193Z,99.01
2018-11-10T04:02:17.663Z,99.20
2018-11-10T04:04:46.091Z,98.96
2018-11-10T04:07:14.626Z,99.19
2018-11-10T04:09:43.382Z,98.90
2018-11-10T04:12:11.785Z,99.56
2018-11-10T04:14:40.310Z,98.85
2018-11-10T04:17:08.824Z,99.07
2018-11-10T04:19:37.146Z,99.09
2018-11-10T04:22:05.690Z,98.83
2018-11-10T04:24:34.122Z,98.55
2018-11-10T04:27:02.423Z,98.12
2018-11-10T04:29:30.755Z,98.56
2018-11-10T04:31:59.162Z,99.43
2018-11-10T04:34:27.451Z,98.46
2018-11-10T04:36:55.769Z,98.99
2018-11-10T04:39:24.306Z,99.57
2018-11-10T04:41:52.609Z,99.41
2018-11-10T04:44:21.103Z,99.22
2018-11-10T04:46:49.598Z,99.34
2018-11-10T04:49:18.095Z,99.64
2018-11-10T04:51:46.484Z,99.61
2018-11-10T04:54:14.759Z,99.44
2018-11-10T04:56:43.112Z,99.96
2018-11-10T04:59:11.412Z,100.00
2018-11-10T05:01:39.699Z,99.62
2018-11-10T05:04:08.082Z,99.50
2018-11-10T05:06:36.387Z,99.46
2018-11-10T05:09:06.133Z,99.26
2018-11-10T05:11:34.440Z,99.59
2018-11-10T05:14:02.834Z,99.55
2018-11-10T05:16:31.217Z,100.00
2018-11-10T05:18:59.595Z,100.00
2018-11-10T05:21:27.956Z,99.57
2018-11-10T05:23:56.260Z,98.67
2018-11-10T05:26:24.634Z,99.66
2018-11-10T05:28:52.943Z,99.66
2018-11-10T05:31:21.292Z,99.42
2018-11-10T05:33:49.651Z,99.71
2018-11-10T05:36:18.036Z,99.39
2018-11-10T05:38:46.398Z,99.82
2018-11-10T05:41:14.738Z,100.00
2018-11-10T05:43:43.090Z,100.00
2018-11-10T05:46:11.373Z,100.00
2018-11-10T05:48:39.687Z,100.00
2018-11-10T05:51:08.054Z,100.00
2018-11-10T05:53:36.417Z,100.00
2018-11-10T05:56:05.441Z,100.00
2018-11-10T05:58:33.775Z,100.00
2018-11-10T06:01:02.194Z,100.00
2018-11-10T06:03:30.530Z,100.00
2018-11-10T06:05:58.894Z,100.00
2018-11-10T06:08:27.214Z,100.00
2018-11-10T06:10:55.517Z,100.00
2018-11-10T06:13:24.129Z,100.00
2018-11-10T06:15:52.632Z,100.00
2018-11-10T06:18:21.011Z,100.00
2018-11-10T06:20:49.507Z,100.00
2018-11-10T06:23:17.867Z,100.00
2018-11-10T06:25:46.240Z,100.00
2018-11-10T06:28:15.490Z,100.00
2018-11-10T06:30:43.818Z,100.00
2018-11-10T06:33:12.126Z,100.00
2018-11-10T06:35:41.849Z,100.00
2018-11-10T06:38:11.030Z,100.00
2018-11-10T06:40:40.493Z,100.00
2018-11-10T06:43:08.924Z,100.00
2018-11-10T06:45:37.273Z,100.00
2018-11-10T06:48:05.944Z,100.00
2018-11-10T06:50:34.339Z,100.00
2018-11-10T06:53:03.923Z,100.00
2018-11-10T06:55:33.540Z,100.00
2018-11-10T06:58:02.738Z,100.00
2018-11-10T07:00:31.210Z,100.00
2018-11-10T07:02:59.526Z,100.00
2018-11-10T07:05:28.458Z,100.00
2018-11-10T07:07:56.818Z,100.00
2018-11-10T07:13:17.678Z,100.00
2018-11-10T07:15:46.330Z,100.00
2018-11-10T07:18:15.153Z,100.00
2018-11-10T07:20:45.092Z,100.00
2018-11-10T07:23:13.442Z,100.00
2018-11-10T07:25:41.905Z,100.00
2018-11-10T07:28:10.266Z,100.00
2018-11-10T07:30:38.894Z,100.00
2018-11-10T07:33:07.206Z,100.00
2018-11-10T07:35:35.534Z,99.64
2018-11-10T07:38:03.869Z,99.12
2018-11-10T07:40:32.181Z,97.99
2018-11-10T07:43:00.529Z,98.04
2018-11-10T07:45:28.836Z,96.59
2018-11-10T07:47:57.135Z,96.71
2018-11-10T07:50:25.623Z,96.46
2018-11-10T07:52:53.931Z,96.61
2018-11-10T07:55:22.487Z,95.62
2018-11-10T07:57:50.780Z,95.59
2018-11-10T08:00:19.588Z,95.17
2018-11-10T08:02:47.888Z,95.28
2018-11-10T08:05:16.955Z,95.24
2018-11-10T08:07:45.908Z,95.38
2018-11-10T08:10:16.304Z,95.08
2018-11-10T08:12:44.750Z,95.11
2018-11-10T08:15:14.802Z,94.50
2018-11-10T08:17:43.315Z,93.89
2018-11-10T08:20:12.508Z,94.37
2018-11-10T08:22:41.158Z,93.90
2018-11-10T08:25:12.155Z,93.30
2018-11-10T08:27:40.640Z,93.02
2018-11-10T08:30:11.116Z,92.69
2018-11-10T08:32:40.090Z,93.31
2018-11-10T08:35:10.202Z,92.17
2018-11-10T08:37:38.810Z,92.46
2018-11-10T08:40:09.154Z,92.07
2018-11-10T08:42:37.615Z,92.17
2018-11-10T08:45:08.088Z,92.47
2018-11-10T08:47:36.446Z,92.29
2018-11-10T08:50:05.638Z,91.71
2018-11-10T08:52:33.960Z,91.23
2018-11-10T08:55:02.436Z,90.45
2018-11-10T08:57:30.734Z,90.93
2018-11-10T08:59:59.044Z,90.77
2018-11-10T09:02:27.374Z,90.64
2018-11-10T09:04:55.716Z,90.60
2018-11-10T09:07:24.470Z,89.91
2018-11-10T09:09:53.067Z,90.58
2018-11-10T09:12:21.487Z,90.16
2018-11-10T09:14:49.854Z,89.88
2018-11-10T09:17:18.142Z,90.20
2018-11-10T09:19:46.473Z,89.66
2018-11-10T09:22:15.043Z,89.23
2018-11-10T09:24:43.319Z,89.76
2018-11-10T09:27:11.668Z,89.95
2018-11-10T09:29:40.083Z,89.85
2018-11-10T09:32:08.356Z,90.03
2018-11-10T09:34:36.664Z,89.80
2018-11-10T09:37:23.540Z,89.35
2018-11-10T09:39:51.900Z,88.17
2018-11-10T09:42:20.429Z,88.86
2018-11-10T09:44:48.696Z,89.26
2018-11-10T09:47:17.016Z,89.72
2018-11-10T09:49:49.142Z,89.98
2018-11-10T09:52:18.406Z,89.76
2018-11-10T09:54:47.811Z,89.09
2018-11-10T09:57:17.435Z,89.50
2018-11-10T09:59:47.600Z,88.78
2018-11-10T10:02:17.858Z,89.13
2018-11-10T10:04:46.049Z,89.13
2018-11-10T10:07:14.391Z,88.51
2018-11-10T10:09:42.714Z,88.63
2018-11-10T10:12:11.139Z,88.67
2018-11-10T10:14:39.415Z,88.38
2018-11-10T10:17:07.727Z,88.10
2018-11-10T10:19:36.031Z,87.82
2018-11-10T10:22:04.382Z,88.16
2018-11-10T10:24:32.672Z,88.59
2018-11-10T10:27:01.035Z,88.25
2018-11-10T10:29:29.330Z,87.29
2018-11-10T10:31:57.960Z,87.12
2018-11-10T10:34:26.403Z,87.52
2018-11-10T10:36:55.145Z,87.37
2018-11-10T10:39:23.551Z,87.45
2018-11-10T10:41:51.987Z,87.29
2018-11-10T10:44:20.414Z,86.74
2018-11-10T10:46:48.825Z,86.95
2018-11-10T10:49:17.537Z,87.38
2018-11-10T10:51:45.924Z,87.30
2018-11-10T10:54:14.851Z,87.23
2018-11-10T10:56:43.164Z,87.04
2018-11-10T10:59:11.584Z,87.43
2018-11-10T11:01:45.209Z,86.94
2018-11-10T11:04:18.892Z,86.93
2018-11-10T11:06:47.222Z,86.84
2018-11-10T11:09:15.602Z,87.33
2018-11-10T11:11:44.043Z,87.18
2018-11-10T11:14:12.382Z,87.33
2018-11-10T11:16:40.716Z,86.35
2018-11-10T11:19:09.133Z,86.48
2018-11-10T11:21:37.494Z,87.06
2018-11-10T11:24:06.158Z,86.69
2018-11-10T11:26:34.479Z,86.86
2018-11-10T11:29:02.813Z,86.55
2018-11-10T11:31:31.208Z,86.44
2018-11-10T11:33:59.546Z,87.11
2018-11-10T11:36:27.948Z,86.77
2018-11-10T11:38:56.254Z,86.76
2018-11-10T11:41:24.668Z,87.04
2018-11-10T11:43:52.919Z,86.80
2018-11-10T11:46:21.214Z,86.81
2018-11-10T11:48:49.524Z,87.25
2018-11-10T11:51:17.778Z,87.15
2018-11-10T11:53:46.118Z,86.92
2018-11-10T11:56:14.385Z,87.19
2018-11-10T11:58:42.711Z,87.37
2018-11-10T12:01:11.469Z,87.55
2018-11-10T12:03:39.844Z,87.09
2018-11-10T12:06:08.121Z,87.22
2018-11-10T12:08:36.428Z,87.13
2018-11-10T12:11:05.172Z,87.18
2018-11-10T12:13:33.521Z,87.11
2018-11-10T12:16:01.945Z,87.12
2018-11-10T12:18:30.275Z,86.80
2018-11-10T12:20:58.687Z,87.43
2018-11-10T12:23:27.062Z,87.42
2018-11-10T12:25:55.360Z,87.24
2018-11-10T12:28:23.950Z,87.69
2018-11-10T12:30:52.236Z,87.65
2018-11-10T12:33:21.451Z,87.27
2018-11-10T12:35:50.445Z,87.23
2018-11-10T12:38:18.987Z,87.09
2018-11-10T12:40:47.465Z,86.94
2018-11-10T12:43:15.888Z,86.72
2018-11-10T12:45:44.419Z,86.77
2018-11-10T12:48:12.731Z,87.04
2018-11-10T12:50:41.022Z,86.67
2018-11-10T12:53:09.326Z,86.61
2018-11-10T12:55:38.074Z,86.52
2018-11-10T12:58:06.504Z,86.31
2018-11-10T13:00:34.875Z,86.10
2018-11-10T13:03:03.400Z,86.04
2018-11-10T13:05:31.835Z,86.25
2018-11-10T13:08:00.386Z,86.21
2018-11-10T13:10:28.721Z,85.92
2018-11-10T13:12:57.259Z,85.91
2018-11-10T13:15:25.674Z,85.91
2018-11-10T13:17:54.044Z,86.04
2018-11-10T13:20:22.618Z,85.73
2018-11-10T13:22:50.921Z,85.86
2018-11-10T13:25:19.405Z,85.87
2018-11-10T13:27:47.827Z,86.63
2018-11-10T13:30:16.719Z,86.65
2018-11-10T13:32:45.622Z,85.88
2018-11-10T13:35:14.012Z,85.91
2018-11-10T13:37:42.311Z,86.04
2018-11-10T13:40:11.713Z,86.43
2018-11-10T13:42:40.180Z,85.76
2018-11-10T13:45:10.292Z,86.08
2018-11-10T13:47:38.670Z,86.07
2018-11-10T13:50:09.077Z,86.22
2018-11-10T13:52:38.267Z,86.46
2018-11-10T13:55:06.325Z,86.64
2018-11-10T13:57:34.658Z,86.35
2018-11-10T14:00:03.947Z,86.52
2018-11-10T14:02:32.302Z,86.19
2018-11-10T14:05:00.863Z,86.74
2018-11-10T14:07:29.181Z,86.75
2018-11-10T14:09:57.539Z,86.99
2018-11-10T14:12:26.231Z,86.59
2018-11-10T14:14:54.435Z,86.81
2018-11-10T14:17:22.822Z,86.96
2018-11-10T14:19:51.097Z,87.35
2018-11-10T14:22:19.406Z,87.04
2018-11-10T14:24:47.731Z,86.94
2018-11-10T14:27:16.023Z,86.94
2018-11-10T14:29:44.390Z,86.89
2018-11-10T14:32:12.683Z,86.61
2018-11-10T14:34:41.008Z,86.51
2018-11-10T14:37:09.351Z,86.80
2018-11-10T14:39:37.679Z,86.91
2018-11-10T14:42:06.007Z,86.66
2018-11-10T14:44:34.350Z,87.25
2018-11-10T14:47:02.787Z,87.32
2018-11-10T14:49:31.148Z,86.97
2018-11-10T14:51:59.580Z,87.29
2018-11-10T14:54:27.930Z,87.04
2018-11-10T14:56:56.587Z,87.48
2018-11-10T14:59:24.952Z,87.28
2018-11-10T15:01:53.234Z,87.60
2018-11-10T15:04:21.598Z,87.56
2018-11-10T15:06:51.661Z,87.50
2018-11-10T15:09:19.992Z,87.52
2018-11-10T15:11:48.436Z,86.86
2018-11-10T15:14:16.634Z,87.19
2018-11-10T15:16:44.952Z,87.53
2018-11-10T15:19:13.245Z,87.70
2018-11-10T15:21:41.571Z,86.85
2018-11-10T15:24:09.886Z,86.71
2018-11-10T15:26:38.785Z,87.34
2018-11-10T15:29:07.350Z,87.30
2018-11-10T15:31:36.768Z,87.77
2018-11-10T15:34:05.570Z,87.60
2018-11-10T15:36:34.625Z,87.86
2018-11-10T15:39:04.702Z,87.92
2018-11-10T15:41:33.287Z,87.49
2018-11-10T15:44:02.140Z,87.88
2018-11-10T15:46:30.616Z,87.74
2018-11-10T15:48:58.979Z,87.55
2018-11-10T15:51:27.262Z,87.62
2018-11-10T15:53:55.727Z,87.24
2018-11-10T15:56:24.052Z,87.23
2018-11-10T15:58:52.350Z,87.98
2018-11-10T16:01:20.850Z,87.64
2018-11-10T16:03:49.482Z,87.67
2018-11-10T16:06:17.736Z,86.86
2018-11-10T16:08:46.061Z,87.37
2018-11-10T16:11:14.459Z,87.62
2018-11-10T16:13:42.847Z,87.23
2018-11-10T16:16:11.345Z,86.23
2018-11-10T16:18:39.718Z,86.12
2018-11-10T16:21:08.816Z,86.23
2018-11-10T16:23:37.334Z,86.78
2018-11-10T16:26:05.826Z,87.23
2018-11-10T16:28:34.257Z,87.00
2018-11-10T16:31:02.743Z,86.59
2018-11-10T16:33:31.188Z,87.02
2018-11-10T16:36:01.293Z,86.43
2018-11-10T16:38:29.924Z,86.71
2018-11-10T16:40:58.263Z,87.25
2018-11-10T16:43:26.680Z,86.68
2018-11-10T16:45:55.114Z,86.58
2018-11-10T16:48:23.487Z,86.85
2018-11-10T16:50:52.287Z,86.40
2018-11-10T16:53:21.372Z,86.46
2018-11-10T16:55:49.811Z,86.73
2018-11-10T16:58:18.219Z,86.36
2018-11-10T17:00:46.777Z,87.10
2018-11-10T17:03:15.265Z,87.16
2018-11-10T17:05:43.926Z,87.53
2018-11-10T17:08:12.530Z,87.85
2018-11-10T17:10:40.931Z,88.40
2018-11-10T17:13:09.452Z,87.98
2018-11-10T17:15:37.924Z,87.84
2018-11-10T17:18:06.182Z,88.54
2018-11-10T17:20:34.494Z,88.93
2018-11-10T17:23:02.919Z,88.65
2018-11-10T17:25:31.276Z,89.04
2018-11-10T17:28:00.250Z,88.96
2018-11-10T17:30:29.725Z,88.70
2018-11-10T17:32:58.132Z,88.90
2018-11-10T17:35:27.118Z,88.88
2018-11-10T17:37:56.255Z,89.46
2018-11-10T17:40:24.877Z,89.36
2018-11-10T17:42:54.354Z,88.68
2018-11-10T17:45:23.005Z,88.84
2018-11-10T17:47:51.411Z,88.46
2018-11-10T17:50:19.825Z,89.16
2018-11-10T17:52:48.255Z,88.87
2018-11-10T17:55:17.428Z,88.33
2018-11-10T17:57:46.264Z,88.63
2018-11-10T18:00:14.778Z,88.29
2018-11-10T18:02:43.094Z,88.03
2018-11-10T18:05:13.250Z,87.96
2018-11-10T18:07:41.828Z,87.77
2018-11-10T18:10:12.151Z,88.14
2018-11-10T18:12:40.756Z,87.77
2018-11-10T18:15:10.016Z,88.13
2018-11-10T18:17:38.741Z,87.94
2018-11-10T18:20:08.114Z,87.58
2018-11-10T18:22:36.729Z,87.73
2018-11-10T18:25:05.638Z,87.69
2018-11-10T18:27:40.456Z,87.58
2018-11-10T18:30:11.416Z,87.32
2018-11-10T18:32:39.782Z,87.41
2018-11-10T18:38:16.330Z,87.83
2018-11-10T18:40:44.650Z,88.27
2018-11-10T18:43:12.979Z,88.33
2018-11-10T18:45:41.486Z,88.10
2018-11-10T18:48:09.818Z,88.15
2018-11-10T18:50:38.228Z,87.63
2018-11-10T18:53:06.737Z,88.33
2018-11-10T18:55:36.528Z,88.34
2018-11-10T18:58:04.913Z,88.18
2018-11-10T19:00:33.271Z,88.09
2018-11-10T19:03:01.595Z,88.52
2018-11-10T19:05:29.908Z,88.68
2018-11-10T19:07:58.351Z,89.03
2018-11-10T19:10:26.704Z,89.28
2018-11-10T19:12:55.053Z,88.79
2018-11-10T19:15:23.314Z,89.12
2018-11-10T19:17:51.679Z,89.21
2018-11-10T19:20:20.084Z,89.12
2018-11-10T19:22:48.494Z,89.49
2018-11-10T19:25:16.984Z,89.53
2018-11-10T19:27:45.462Z,89.08
2018-11-10T19:30:16.446Z,88.77
2018-11-10T19:32:45.426Z,88.79
2018-11-10T19:35:14.070Z,88.93
2018-11-10T19:37:42.582Z,88.66
2018-11-10T19:40:11.637Z,89.06
2018-11-10T19:42:41.235Z,88.80
2018-11-10T19:45:10.454Z,88.94
2018-11-10T19:47:40.187Z,88.72
2018-11-10T19:50:09.695Z,88.80
2018-11-10T19:52:39.104Z,88.98
2018-11-10T19:55:10.657Z,88.64
2018-11-10T19:57:39.103Z,88.44
2018-11-10T20:00:14.184Z,88.60
2018-11-10T20:02:43.259Z,88.43
2018-11-10T20:05:11.679Z,88.75
2018-11-10T20:07:40.436Z,88.83
2018-11-10T20:10:09.698Z,88.78
2018-11-10T20:12:38.783Z,88.41
2018-11-10T20:15:09.761Z,88.23
2018-11-10T20:17:38.887Z,88.21
2018-11-10T20:20:09.522Z,88.23
2018-11-10T20:22:38.373Z,88.27
2018-11-10T20:25:10.768Z,88.16
2018-11-10T20:27:40.551Z,88.30
2018-11-10T20:30:11.976Z,88.23
2018-11-10T20:32:42.529Z,88.54
2018-11-10T20:35:12.797Z,87.92
2018-11-10T20:37:43.051Z,88.33
2018-11-10T20:40:13.656Z,88.25
2018-11-10T20:42:42.601Z,88.37
2018-11-10T20:45:17.381Z,88.56
2018-11-10T20:47:51.030Z,88.18
2018-11-10T20:50:22.085Z,88.35
2018-11-10T20:52:50.469Z,88.61
2018-11-10T20:55:18.959Z,88.38
2018-11-10T20:57:47.741Z,88.72
2018-11-10T21:00:19.835Z,88.81
2018-11-10T21:02:48.087Z,88.46
2018-11-10T21:05:18.029Z,88.96
2018-11-10T21:07:50.044Z,88.46
2018-11-10T21:10:19.871Z,88.84
2018-11-10T21:12:49.716Z,89.64
2018-11-10T21:15:19.372Z,89.61
2018-11-10T21:17:48.199Z,89.24
2018-11-10T21:20:16.676Z,89.28
2018-11-10T21:22:46.703Z,89.69
2018-11-10T21:25:16.578Z,89.94
2018-11-10T21:27:48.304Z,89.98
2018-11-10T21:30:18.143Z,90.18
2018-11-10T21:32:47.124Z,90.16
2018-11-10T21:35:15.512Z,90.00
2018-11-10T21:37:45.666Z,90.45
2018-11-10T21:40:15.469Z,90.29
2018-11-10T21:42:44.337Z,89.86
2018-11-10T21:45:13.795Z,90.04
2018-11-10T21:47:42.226Z,90.41
2018-11-10T21:50:13.753Z,89.98
2018-11-10T21:52:44.920Z,90.15
2018-11-10T21:55:14.585Z,90.58
2018-11-10T21:57:43.701Z,89.28
2018-11-10T22:00:14.733Z,89.32
2018-11-10T22:02:43.677Z,89.65
2018-11-10T22:05:12.427Z,89.08
2018-11-10T22:07:40.716Z,89.27
2018-11-10T22:10:11.855Z,89.36
2018-11-10T22:12:40.555Z,88.56
2018-11-10T22:15:11.414Z,88.98
2018-11-10T22:17:41.458Z,89.72
2018-11-10T22:20:11.303Z,89.34
2018-11-10T22:22:41.365Z,88.84
2018-11-10T22:25:10.672Z,88.92
2018-11-10T22:27:41.016Z,88.95
2018-11-10T22:30:11.232Z,88.85
2018-11-10T22:32:39.609Z,88.19
2018-11-10T22:35:08.656Z,88.34
2018-11-10T22:37:38.475Z,88.39
2018-11-10T22:40:08.580Z,88.81
2018-11-10T22:42:37.734Z,88.43
2018-11-10T22:45:06.827Z,88.72
2018-11-10T22:47:35.159Z,89.13
2018-11-10T22:50:03.459Z,88.98
2018-11-10T22:52:32.458Z,89.14
2018-11-10T22:55:00.732Z,89.01
2018-11-10T22:57:29.188Z,88.99
2018-11-10T22:59:57.628Z,89.11
2018-11-10T23:02:26.367Z,89.58
2018-11-10T23:04:55.994Z,89.58
2018-11-10T23:07:24.302Z,89.11
2018-11-10T23:09:52.689Z,89.24
2018-11-10T23:12:21.072Z,88.87
2018-11-10T23:14:49.411Z,89.38
2018-11-10T23:17:17.760Z,89.61
2018-11-10T23:19:46.374Z,89.35
2018-11-10T23:22:14.882Z,89.36
2018-11-10T23:24:43.355Z,89.54
2018-11-10T23:27:11.671Z,89.71
2018-11-10T23:29:40.007Z,89.96
2018-11-10T23:32:08.398Z,89.87
2018-11-10T23:34:36.682Z,89.93
2018-11-10T23:37:05.502Z,90.27
2018-11-10T23:39:33.844Z,90.12
2018-11-10T23:42:02.365Z,90.28
2018-11-10T23:44:31.111Z,89.96
2018-11-10T23:46:59.898Z,89.78
2018-11-10T23:49:28.297Z,89.69
2018-11-10T23:51:56.886Z,89.78
2018-11-10T23:54:25.203Z,89.57
2018-11-10T23:56:53.687Z,89.20
2018-11-10T23:59:21.996Z,89.66
